Airfield :







YOU CAN JOIN US ON...

 
LOGIN :

Register | Disclaimer

   EN    FR    IT 

 









Legend :    VFR   Marginal VFR   IFR   Intensive IFR   Very Intensive IFR
Visi :
Ceiling :
>= 8 km
>= 3000ft
5 to 8 km
1000 to 3000 ft
1500m to 5 km
500 to 1000 ft
800 to 1500m
200 to 500 ft
< 800m
< 200 ft
Symbols :   Thunderstorms  Fog  Heavy snow  Heavy precipitations  Wind > 20 kt






- Airport Elevation : 1161 ft


KBML - Berlin Regional

CURRENT METAR :
  • 280852Z AUTO 24007G17KT 170V290 10SM OVC034 M07/M12 A2943 RMK AO2 SLP982 60000 T10671117 53004 $

EXPIRED METARs :
  • 280801Z AUTO 25010G21KT 190V310 10SM BKN028 BKN035 M06/M12 A2942 RMK AO2 T10611117 $
  • 280652Z AUTO 23007KT 8SM -SN SCT030 BKN037 OVC075 M06/M10 A2942 RMK AO2 SNB51 SLP977 P0000 T10561100 $
  • 280552Z AUTO 23008KT 210V280 7SM SCT028 OVC035 M05/M09 A2941 RMK AO2 SNE52 SLP973 P0000 60002 T10501094 11028 21050 53010 $

TAF N/A



MET'MAP, your aeronautical weather chart ! - Copyright ORBIFLY December 2007 - Disclaimer

ORBIFLY MET'MAP TEAM :

Programming & Development : Alexandra Zaïnal
Concept & original design : Baudouin d'Aumeries
Assistance for programming : Marc-Olivier Méhu
Technical & hardware support : Manuel Goepfert

Contact : metmap@orbifly.com




SOURCES & CREDITS :

   NOAA